sensor_id;sensor_type;location;lat;lon;timestamp;pressure;altitude;pressure_sealevel;temperature;humidity
28935;BME280;16044;52.726;-2.108;2023-01-29T00:01:56;102004.94;;;5.07;98.86
28935;BME280;16044;52.726;-2.108;2023-01-29T00:04:23;102009.81;;;5.15;98.56
28935;BME280;16044;52.726;-2.108;2023-01-29T00:06:50;102010.78;;;5.14;98.43
28935;BME280;16044;52.726;-2.108;2023-01-29T00:09:17;102006.47;;;5.12;98.64
28935;BME280;16044;52.726;-2.108;2023-01-29T00:11:44;102010.53;;;5.04;99.55
28935;BME280;16044;52.726;-2.108;2023-01-29T00:14:12;102007.53;;;5.09;99.07
28935;BME280;16044;52.726;-2.108;2023-01-29T00:16:39;102007.84;;;5.04;99.59
28935;BME280;16044;52.726;-2.108;2023-01-29T00:19:06;102002.16;;;5.09;99.32
28935;BME280;16044;52.726;-2.108;2023-01-29T00:21:33;102000.44;;;5.08;99.56
28935;BME280;16044;52.726;-2.108;2023-01-29T00:24:00;102006.69;;;5.08;99.72
28935;BME280;16044;52.726;-2.108;2023-01-29T00:26:27;102003.72;;;4.99;100.00
28935;BME280;16044;52.726;-2.108;2023-01-29T00:28:55;101995.47;;;5.02;100.00
28935;BME280;16044;52.726;-2.108;2023-01-29T00:31:28;101992.22;;;4.97;100.00
28935;BME280;16044;52.726;-2.108;2023-01-29T00:33:55;101985.81;;;4.99;100.00
28935;BME280;16044;52.726;-2.108;2023-01-29T00:36:24;101986.84;;;4.97;100.00
28935;BME280;16044;52.726;-2.108;2023-01-29T00:38:56;101991.69;;;4.92;100.00
28935;BME280;16044;52.726;-2.108;2023-01-29T00:41:31;101997.47;;;4.85;100.00
28935;BME280;16044;52.726;-2.108;2023-01-29T00:44:17;101997.13;;;4.77;100.00
28935;BME280;16044;52.726;-2.108;2023-01-29T00:47:03;101994.09;;;4.69;100.00
28935;BME280;16044;52.726;-2.108;2023-01-29T00:49:51;101998.47;;;4.70;100.00
28935;BME280;16044;52.726;-2.108;2023-01-29T00:52:18;101996.41;;;4.61;100.00
28935;BME280;16044;52.726;-2.108;2023-01-29T00:54:57;101996.22;;;4.64;100.00
28935;BME280;16044;52.726;-2.108;2023-01-29T00:57:27;101982.03;;;4.62;100.00
28935;BME280;16044;52.726;-2.108;2023-01-29T00:59:56;101980.09;;;4.64;100.00
28935;BME280;16044;52.726;-2.108;2023-01-29T01:02:23;101983.72;;;4.63;100.00
28935;BME280;16044;52.726;-2.108;2023-01-29T01:05:11;101982.69;;;4.65;100.00
28935;BME280;16044;52.726;-2.108;2023-01-29T01:07:45;101978.16;;;4.66;100.00
28935;BME280;16044;52.726;-2.108;2023-01-29T01:10:18;101973.00;;;4.63;100.00
28935;BME280;16044;52.726;-2.108;2023-01-29T01:15:17;101970.88;;;4.68;100.00
28935;BME280;16044;52.726;-2.108;2023-01-29T01:17:45;101965.69;;;4.65;100.00
28935;BME280;16044;52.726;-2.108;2023-01-29T01:20:12;101956.50;;;4.69;100.00
28935;BME280;16044;52.726;-2.108;2023-01-29T01:22:39;101957.25;;;4.71;100.00
28935;BME280;16044;52.726;-2.108;2023-01-29T01:25:07;101946.78;;;4.66;100.00
28935;BME280;16044;52.726;-2.108;2023-01-29T01:27:34;101946.50;;;4.71;100.00
28935;BME280;16044;52.726;-2.108;2023-01-29T01:30:03;101947.69;;;4.67;100.00
28935;BME280;16044;52.726;-2.108;2023-01-29T01:32:30;101942.09;;;4.70;100.00
28935;BME280;16044;52.726;-2.108;2023-01-29T01:34:57;101940.38;;;4.69;100.00
28935;BME280;16044;52.726;-2.108;2023-01-29T01:37:24;101938.63;;;4.68;100.00
28935;BME280;16044;52.726;-2.108;2023-01-29T01:39:51;101944.00;;;4.68;100.00
28935;BME280;16044;52.726;-2.108;2023-01-29T01:42:28;101936.94;;;4.67;100.00
28935;BME280;16044;52.726;-2.108;2023-01-29T01:45:04;101932.59;;;4.64;100.00
28935;BME280;16044;52.726;-2.108;2023-01-29T01:47:40;101926.16;;;4.54;100.00
28935;BME280;16044;52.726;-2.108;2023-01-29T01:50:16;101919.50;;;4.60;100.00
28935;BME280;16044;52.726;-2.108;2023-01-29T01:52:49;101922.84;;;4.63;100.00
28935;BME280;16044;52.726;-2.108;2023-01-29T01:55:23;101920.03;;;4.65;100.00
28935;BME280;16044;52.726;-2.108;2023-01-29T01:57:56;101919.28;;;4.63;100.00
28935;BME280;16044;52.726;-2.108;2023-01-29T02:00:28;101920.16;;;4.63;100.00
28935;BME280;16044;52.726;-2.108;2023-01-29T02:02:55;101921.00;;;4.64;100.00
28935;BME280;16044;52.726;-2.108;2023-01-29T02:05:40;101913.06;;;4.62;100.00
28935;BME280;16044;52.726;-2.108;2023-01-29T02:08:34;101915.63;;;4.64;100.00
28935;BME280;16044;52.726;-2.108;2023-01-29T02:11:30;101914.88;;;4.62;100.00
28935;BME280;16044;52.726;-2.108;2023-01-29T02:13:57;101907.50;;;4.65;100.00
28935;BME280;16044;52.726;-2.108;2023-01-29T02:16:24;101909.19;;;4.66;100.00
28935;BME280;16044;52.726;-2.108;2023-01-29T02:18:51;101904.69;;;4.67;100.00
28935;BME280;16044;52.726;-2.108;2023-01-29T02:21:30;101897.69;;;4.64;100.00
28935;BME280;16044;52.726;-2.108;2023-01-29T02:29:43;101889.97;;;4.60;100.00
28935;BME280;16044;52.726;-2.108;2023-01-29T02:33:03;101890.50;;;4.65;100.00
28935;BME280;16044;52.726;-2.108;2023-01-29T02:35:34;101887.28;;;4.60;100.00
28935;BME280;16044;52.726;-2.108;2023-01-29T02:41:33;101873.84;;;4.60;100.00
28935;BME280;16044;52.726;-2.108;2023-01-29T02:46:58;101853.53;;;4.56;100.00
28935;BME280;16044;52.726;-2.108;2023-01-29T02:49:32;101848.19;;;4.56;100.00
28935;BME280;16044;52.726;-2.108;2023-01-29T02:52:15;101851.25;;;4.49;100.00
28935;BME280;16044;52.726;-2.108;2023-01-29T02:54:54;101862.00;;;4.49;100.00
28935;BME280;16044;52.726;-2.108;2023-01-29T02:57:35;101856.63;;;4.49;100.00
28935;BME280;16044;52.726;-2.108;2023-01-29T03:00:16;101857.19;;;4.55;100.00
28935;BME280;16044;52.726;-2.108;2023-01-29T03:03:01;101854.81;;;4.50;100.00
28935;BME280;16044;52.726;-2.108;2023-01-29T03:05:51;101854.34;;;4.43;100.00
28935;BME280;16044;52.726;-2.108;2023-01-29T03:08:32;101853.94;;;4.49;100.00
28935;BME280;16044;52.726;-2.108;2023-01-29T03:11:12;101853.94;;;4.49;100.00
28935;BME280;16044;52.726;-2.108;2023-01-29T03:16:30;101853.75;;;4.53;100.00
28935;BME280;16044;52.726;-2.108;2023-01-29T03:19:10;101840.31;;;4.53;100.00
28935;BME280;16044;52.726;-2.108;2023-01-29T03:21:53;101831.19;;;4.55;100.00
28935;BME280;16044;52.726;-2.108;2023-01-29T03:27:54;101832.25;;;4.53;100.00
28935;BME280;16044;52.726;-2.108;2023-01-29T03:30:49;101823.34;;;4.52;100.00
28935;BME280;16044;52.726;-2.108;2023-01-29T03:33:48;101835.69;;;4.55;100.00
28935;BME280;16044;52.726;-2.108;2023-01-29T03:36:22;101831.28;;;4.54;100.00
28935;BME280;16044;52.726;-2.108;2023-01-29T03:39:05;101824.09;;;4.54;100.00
28935;BME280;16044;52.726;-2.108;2023-01-29T03:41:37;101828.41;;;4.57;100.00
28935;BME280;16044;52.726;-2.108;2023-01-29T03:44:11;101820.44;;;4.55;100.00
28935;BME280;16044;52.726;-2.108;2023-01-29T03:49:59;101817.66;;;4.57;100.00
28935;BME280;16044;52.726;-2.108;2023-01-29T03:58:44;101823.03;;;4.57;100.00
28935;BME280;16044;52.726;-2.108;2023-01-29T04:01:18;101817.66;;;4.57;100.00
28935;BME280;16044;52.726;-2.108;2023-01-29T04:06:51;101812.09;;;4.60;100.00
28935;BME280;16044;52.726;-2.108;2023-01-29T04:09:22;101813.78;;;4.61;100.00
28935;BME280;16044;52.726;-2.108;2023-01-29T04:12:00;101801.44;;;4.58;100.00
28935;BME280;16044;52.726;-2.108;2023-01-29T04:14:30;101808.50;;;4.59;100.00
28935;BME280;16044;52.726;-2.108;2023-01-29T04:17:00;101806.63;;;4.61;100.00
28935;BME280;16044;52.726;-2.108;2023-01-29T04:19:32;101797.47;;;4.64;100.00
28935;BME280;16044;52.726;-2.108;2023-01-29T04:22:07;101786.28;;;4.57;100.00
28935;BME280;16044;52.726;-2.108;2023-01-29T04:24:39;101792.53;;;4.58;100.00
28935;BME280;16044;52.726;-2.108;2023-01-29T04:27:32;101783.72;;;4.56;100.00
28935;BME280;16044;52.726;-2.108;2023-01-29T04:41:25;101767.38;;;4.59;100.00
28935;BME280;16044;52.726;-2.108;2023-01-29T04:44:00;101763.00;;;4.58;100.00
28935;BME280;16044;52.726;-2.108;2023-01-29T04:52:27;101740.97;;;4.53;100.00
28935;BME280;16044;52.726;-2.108;2023-01-29T04:55:31;101733.00;;;4.51;100.00
28935;BME280;16044;52.726;-2.108;2023-01-29T04:58:10;101745.34;;;4.54;100.00
28935;BME280;16044;52.726;-2.108;2023-01-29T05:00:41;101743.53;;;4.41;100.00
28935;BME280;16044;52.726;-2.108;2023-01-29T05:03:11;101738.91;;;4.43;100.00
28935;BME280;16044;52.726;-2.108;2023-01-29T05:05:41;101731.84;;;4.42;100.00
28935;BME280;16044;52.726;-2.108;2023-01-29T05:08:14;101732.91;;;4.40;100.00
28935;BME280;16044;52.726;-2.108;2023-01-29T05:10:44;101726.97;;;4.35;100.00
28935;BME280;16044;52.726;-2.108;2023-01-29T05:13:14;101722.88;;;4.29;100.00
28935;BME280;16044;52.726;-2.108;2023-01-29T05:15:47;101720.22;;;4.29;100.00
28935;BME280;16044;52.726;-2.108;2023-01-29T05:18:19;101706.78;;;4.29;100.00
28935;BME280;16044;52.726;-2.108;2023-01-29T05:20:46;101718.69;;;4.25;100.00
28935;BME280;16044;52.726;-2.108;2023-01-29T05:23:16;101713.56;;;4.22;100.00
28935;BME280;16044;52.726;-2.108;2023-01-29T05:25:45;101718.19;;;4.20;100.00
28935;BME280;16044;52.726;-2.108;2023-01-29T05:28:13;101715.50;;;4.20;100.00
28935;BME280;16044;52.726;-2.108;2023-01-29T05:30:46;101700.53;;;4.16;100.00
28935;BME280;16044;52.726;-2.108;2023-01-29T05:33:20;101703.13;;;4.17;100.00
28935;BME280;16044;52.726;-2.108;2023-01-29T05:35:54;101704.75;;;4.20;100.00
28935;BME280;16044;52.726;-2.108;2023-01-29T05:38:22;101692.28;;;4.19;100.00
28935;BME280;16044;52.726;-2.108;2023-01-29T05:40:49;101691.34;;;4.20;100.00
28935;BME280;16044;52.726;-2.108;2023-01-29T05:43:18;101693.03;;;4.21;100.00
28935;BME280;16044;52.726;-2.108;2023-01-29T05:45:54;101697.47;;;4.22;100.00
28935;BME280;16044;52.726;-2.108;2023-01-29T05:48:23;101683.16;;;4.21;100.00
28935;BME280;16044;52.726;-2.108;2023-01-29T05:50:50;101673.19;;;4.23;100.00
28935;BME280;16044;52.726;-2.108;2023-01-29T05:53:18;101687.69;;;4.21;100.00
28935;BME280;16044;52.726;-2.108;2023-01-29T05:55:46;101681.38;;;4.22;100.00
28935;BME280;16044;52.726;-2.108;2023-01-29T05:58:13;101678.88;;;4.19;100.00
28935;BME280;16044;52.726;-2.108;2023-01-29T06:00:40;101671.56;;;4.21;100.00
28935;BME280;16044;52.726;-2.108;2023-01-29T06:03:08;101672.31;;;4.23;100.00
28935;BME280;16044;52.726;-2.108;2023-01-29T06:05:38;101667.72;;;4.25;100.00
28935;BME280;16044;52.726;-2.108;2023-01-29T06:08:06;101666.75;;;4.26;100.00
28935;BME280;16044;52.726;-2.108;2023-01-29T06:10:33;101669.22;;;4.29;100.00
28935;BME280;16044;52.726;-2.108;2023-01-29T06:13:01;101668.69;;;4.24;100.00
28935;BME280;16044;52.726;-2.108;2023-01-29T06:15:28;101666.22;;;4.34;100.00
28935;BME280;16044;52.726;-2.108;2023-01-29T06:17:56;101661.59;;;4.36;100.00
28935;BME280;16044;52.726;-2.108;2023-01-29T06:20:23;101651.50;;;4.39;100.00
28935;BME280;16044;52.726;-2.108;2023-01-29T06:22:50;101648.06;;;4.37;100.00
28935;BME280;16044;52.726;-2.108;2023-01-29T06:25:17;101659.56;;;4.39;100.00
28935;BME280;16044;52.726;-2.108;2023-01-29T06:27:44;101653.75;;;4.45;100.00
28935;BME280;16044;52.726;-2.108;2023-01-29T06:30:11;101656.34;;;4.47;100.00
28935;BME280;16044;52.726;-2.108;2023-01-29T06:32:38;101658.06;;;4.48;100.00
28935;BME280;16044;52.726;-2.108;2023-01-29T06:35:05;101661.16;;;4.55;100.00
28935;BME280;16044;52.726;-2.108;2023-01-29T06:37:32;101656.75;;;4.54;100.00
28935;BME280;16044;52.726;-2.108;2023-01-29T06:39:59;101659.44;;;4.54;100.00
28935;BME280;16044;52.726;-2.108;2023-01-29T06:42:26;101655.78;;;4.55;100.00
28935;BME280;16044;52.726;-2.108;2023-01-29T06:44:56;101666.31;;;4.58;100.00
28935;BME280;16044;52.726;-2.108;2023-01-29T06:47:23;101659.03;;;4.60;100.00
28935;BME280;16044;52.726;-2.108;2023-01-29T06:49:50;101664.38;;;4.60;100.00
28935;BME280;16044;52.726;-2.108;2023-01-29T06:52:17;101664.16;;;4.63;100.00
28935;BME280;16044;52.726;-2.108;2023-01-29T06:54:44;101655.88;;;4.66;100.00
28935;BME280;16044;52.726;-2.108;2023-01-29T06:57:11;101655.88;;;4.66;100.00
28935;BME280;16044;52.726;-2.108;2023-01-29T06:59:38;101665.44;;;4.70;100.00
28935;BME280;16044;52.726;-2.108;2023-01-29T07:02:05;101665.78;;;4.65;100.00
28935;BME280;16044;52.726;-2.108;2023-01-29T07:04:32;101663.94;;;4.66;100.00
28935;BME280;16044;52.726;-2.108;2023-01-29T07:07:00;101653.09;;;4.67;100.00
28935;BME280;16044;52.726;-2.108;2023-01-29T07:09:27;101650.94;;;4.73;100.00
28935;BME280;16044;52.726;-2.108;2023-01-29T07:11:54;101655.22;;;4.75;100.00
28935;BME280;16044;52.726;-2.108;2023-01-29T07:14:21;101669.22;;;4.67;100.00
28935;BME280;16044;52.726;-2.108;2023-01-29T07:16:48;101662.84;;;4.68;100.00
28935;BME280;16044;52.726;-2.108;2023-01-29T07:19:15;101660.81;;;4.72;100.00
28935;BME280;16044;52.726;-2.108;2023-01-29T07:21:42;101662.75;;;4.70;100.00
28935;BME280;16044;52.726;-2.108;2023-01-29T07:24:08;101657.16;;;4.73;100.00
28935;BME280;16044;52.726;-2.108;2023-01-29T07:26:35;101647.28;;;4.74;100.00
28935;BME280;16044;52.726;-2.108;2023-01-29T07:29:03;101654.38;;;4.75;100.00
28935;BME280;16044;52.726;-2.108;2023-01-29T07:31:31;101653.28;;;4.77;100.00
28935;BME280;16044;52.726;-2.108;2023-01-29T07:33:58;101652.34;;;4.78;100.00
28935;BME280;16044;52.726;-2.108;2023-01-29T07:36:24;101651.56;;;4.76;100.00
28935;BME280;16044;52.726;-2.108;2023-01-29T07:38:52;101649.66;;;4.78;100.00
28935;BME280;16044;52.726;-2.108;2023-01-29T07:41:19;101654.88;;;4.80;100.00
28935;BME280;16044;52.726;-2.108;2023-01-29T07:43:47;101644.28;;;4.78;100.00
28935;BME280;16044;52.726;-2.108;2023-01-29T07:46:14;101649.66;;;4.78;100.00
28935;BME280;16044;52.726;-2.108;2023-01-29T07:48:41;101653.28;;;4.77;100.00
28935;BME280;16044;52.726;-2.108;2023-01-29T07:51:08;101658.47;;;4.80;100.00
28935;BME280;16044;52.726;-2.108;2023-01-29T07:53:35;101656.72;;;4.79;100.00
28935;BME280;16044;52.726;-2.108;2023-01-29T07:56:02;101657.47;;;4.81;100.00
28935;BME280;16044;52.726;-2.108;2023-01-29T07:58:30;101663.59;;;4.83;100.00
28935;BME280;16044;52.726;-2.108;2023-01-29T08:00:56;101656.72;;;4.79;100.00
28935;BME280;16044;52.726;-2.108;2023-01-29T08:03:23;101658.47;;;4.80;100.00
28935;BME280;16044;52.726;-2.108;2023-01-29T08:05:50;101654.56;;;4.84;100.00
28935;BME280;16044;52.726;-2.108;2023-01-29T08:08:17;101653.94;;;4.81;100.00
28935;BME280;16044;52.726;-2.108;2023-01-29T08:10:44;101655.13;;;4.77;100.00
28935;BME280;16044;52.726;-2.108;2023-01-29T08:13:11;101661.88;;;4.82;100.00
28935;BME280;16044;52.726;-2.108;2023-01-29T08:15:41;101668.84;;;4.85;100.00
28935;BME280;16044;52.726;-2.108;2023-01-29T08:18:11;101667.03;;;4.85;100.00
28935;BME280;16044;52.726;-2.108;2023-01-29T08:20:39;101660.69;;;4.86;100.00
28935;BME280;16044;52.726;-2.108;2023-01-29T08:23:13;101668.50;;;4.89;100.00
28935;BME280;16044;52.726;-2.108;2023-01-29T08:25:42;101668.50;;;4.89;100.00
28935;BME280;16044;52.726;-2.108;2023-01-29T08:28:09;101662.91;;;4.93;100.00
28935;BME280;16044;52.726;-2.108;2023-01-29T08:30:37;101671.97;;;4.92;100.00
28935;BME280;16044;52.726;-2.108;2023-01-29T08:33:04;101665.81;;;4.89;100.00
28935;BME280;16044;52.726;-2.108;2023-01-29T08:35:30;101666.69;;;4.90;100.00
28935;BME280;16044;52.726;-2.108;2023-01-29T08:37:59;101662.06;;;4.92;100.00
28935;BME280;16044;52.726;-2.108;2023-01-29T08:40:31;101666.34;;;4.95;100.00
28935;BME280;16044;52.726;-2.108;2023-01-29T08:43:00;101664.41;;;4.97;100.00
28935;BME280;16044;52.726;-2.108;2023-01-29T08:45:33;101659.91;;;4.97;100.00
28935;BME280;16044;52.726;-2.108;2023-01-29T08:48:01;101667.09;;;4.97;100.00
28935;BME280;16044;52.726;-2.108;2023-01-29T08:50:27;101662.72;;;4.96;100.00
28935;BME280;16044;52.726;-2.108;2023-01-29T08:53:02;101674.31;;;4.96;100.00
28935;BME280;16044;52.726;-2.108;2023-01-29T08:55:29;101667.09;;;4.97;100.00
28935;BME280;16044;52.726;-2.108;2023-01-29T08:57:56;101663.75;;;5.06;100.00
28935;BME280;16044;52.726;-2.108;2023-01-29T09:00:23;101669.97;;;5.06;100.00
28935;BME280;16044;52.726;-2.108;2023-01-29T09:02:50;101667.28;;;5.06;100.00
28935;BME280;16044;52.726;-2.108;2023-01-29T09:05:17;101669.75;;;5.10;100.00
28935;BME280;16044;52.726;-2.108;2023-01-29T09:07:44;101667.72;;;5.13;100.00
28935;BME280;16044;52.726;-2.108;2023-01-29T09:10:11;101665.03;;;5.13;100.00
28935;BME280;16044;52.726;-2.108;2023-01-29T09:12:38;101660.91;;;5.20;100.00
28935;BME280;16044;52.726;-2.108;2023-01-29T09:15:06;101661.75;;;5.21;100.00
28935;BME280;16044;52.726;-2.108;2023-01-29T09:17:33;101651.66;;;5.24;100.00
28935;BME280;16044;52.726;-2.108;2023-01-29T09:20:00;101656.06;;;5.25;100.00
28935;BME280;16044;52.726;-2.108;2023-01-29T09:22:27;101654.97;;;5.28;100.00
28935;BME280;16044;52.726;-2.108;2023-01-29T09:24:54;101644.13;;;5.30;100.00
28935;BME280;16044;52.726;-2.108;2023-01-29T09:27:21;101656.09;;;5.37;100.00
28935;BME280;16044;52.726;-2.108;2023-01-29T09:29:48;101659.31;;;5.42;100.00
28935;BME280;16044;52.726;-2.108;2023-01-29T09:32:15;101648.56;;;5.42;100.00
28935;BME280;16044;52.726;-2.108;2023-01-29T09:34:57;101650.50;;;5.40;100.00
28935;BME280;16044;52.726;-2.108;2023-01-29T09:37:23;101649.81;;;5.49;100.00
28935;BME280;16044;52.726;-2.108;2023-01-29T09:39:51;101633.47;;;5.52;100.00
28935;BME280;16044;52.726;-2.108;2023-01-29T09:45:14;101642.03;;;5.57;100.00
28935;BME280;16044;52.726;-2.108;2023-01-29T09:47:46;101631.41;;;5.56;100.00
28935;BME280;16044;52.726;-2.108;2023-01-29T09:50:18;101628.13;;;5.63;100.00
28935;BME280;16044;52.726;-2.108;2023-01-29T09:52:57;101623.25;;;5.69;100.00
28935;BME280;16044;52.726;-2.108;2023-01-29T09:55:49;101622.03;;;5.73;100.00
28935;BME280;16044;52.726;-2.108;2023-01-29T10:04:35;101617.56;;;5.84;100.00
28935;BME280;16044;52.726;-2.108;2023-01-29T10:07:25;101609.75;;;5.93;100.00
28935;BME280;16044;52.726;-2.108;2023-01-29T10:13:00;101607.47;;;5.99;100.00
28935;BME280;16044;52.726;-2.108;2023-01-29T10:27:37;101598.81;;;6.41;99.73
28935;BME280;16044;52.726;-2.108;2023-01-29T10:30:25;101607.50;;;6.44;99.33
28935;BME280;16044;52.726;-2.108;2023-01-29T10:32:58;101598.22;;;6.49;98.85
28935;BME280;16044;52.726;-2.108;2023-01-29T10:35:40;101596.59;;;6.57;97.73
28935;BME280;16044;52.726;-2.108;2023-01-29T10:56:24;101592.78;;;6.82;92.92
28935;BME280;16044;52.726;-2.108;2023-01-29T10:58:58;101592.00;;;6.92;92.18
28935;BME280;16044;52.726;-2.108;2023-01-29T11:01:28;101586.63;;;6.92;92.04
28935;BME280;16044;52.726;-2.108;2023-01-29T11:04:01;101582.97;;;6.93;91.58
28935;BME280;16044;52.726;-2.108;2023-01-29T11:06:34;101574.63;;;6.96;90.94
28935;BME280;16044;52.726;-2.108;2023-01-29T11:12:16;101562.22;;;7.05;90.19
28935;BME280;16044;52.726;-2.108;2023-01-29T11:17:29;101543.94;;;7.08;89.56
28935;BME280;16044;52.726;-2.108;2023-01-29T11:19:55;101540.47;;;7.17;89.42
28935;BME280;16044;52.726;-2.108;2023-01-29T11:22:29;101543.69;;;7.11;88.89
28935;BME280;16044;52.726;-2.108;2023-01-29T11:25:19;101539.03;;;7.13;88.77
28935;BME280;16044;52.726;-2.108;2023-01-29T11:27:57;101532.44;;;7.06;88.98
28935;BME280;16044;52.726;-2.108;2023-01-29T11:30:37;101520.94;;;7.04;88.97
28935;BME280;16044;52.726;-2.108;2023-01-29T11:33:20;101518.63;;;6.99;88.62
28935;BME280;16044;52.726;-2.108;2023-01-29T11:35:49;101505.59;;;7.05;89.30
28935;BME280;16044;52.726;-2.108;2023-01-29T11:38:26;101507.44;;;7.04;89.22
28935;BME280;16044;52.726;-2.108;2023-01-29T11:41:05;101497.91;;;7.00;89.65
28935;BME280;16044;52.726;-2.108;2023-01-29T11:43:36;101494.09;;;7.02;89.96
28935;BME280;16044;52.726;-2.108;2023-01-29T11:46:05;101491.47;;;7.12;88.65
28935;BME280;16044;52.726;-2.108;2023-01-29T11:48:46;101478.16;;;7.11;89.21
28935;BME280;16044;52.726;-2.108;2023-01-29T11:51:26;101477.50;;;7.18;88.55
28935;BME280;16044;52.726;-2.108;2023-01-29T11:53:59;101479.38;;;7.28;88.34
28935;BME280;16044;52.726;-2.108;2023-01-29T11:56:31;101480.25;;;7.28;87.91
28935;BME280;16044;52.726;-2.108;2023-01-29T11:59:01;101473.00;;;7.29;87.95
28935;BME280;16044;52.726;-2.108;2023-01-29T12:01:35;101476.06;;;7.35;88.20
28935;BME280;16044;52.726;-2.108;2023-01-29T12:04:30;101475.53;;;7.41;87.85
28935;BME280;16044;52.726;-2.108;2023-01-29T12:06:57;101466.13;;;7.36;87.27
28935;BME280;16044;52.726;-2.108;2023-01-29T12:09:26;101448.53;;;7.41;87.07
28935;BME280;16044;52.726;-2.108;2023-01-29T12:11:54;101452.28;;;7.50;86.93
28935;BME280;16044;52.726;-2.108;2023-01-29T12:14:32;101450.72;;;7.48;86.61
28935;BME280;16044;52.726;-2.108;2023-01-29T12:17:13;101456.75;;;7.40;86.99
28935;BME280;16044;52.726;-2.108;2023-01-29T12:20:02;101445.00;;;7.41;86.36
28935;BME280;16044;52.726;-2.108;2023-01-29T12:22:42;101446.22;;;7.37;86.21
28935;BME280;16044;52.726;-2.108;2023-01-29T12:34:55;101426.63;;;7.35;87.18
28935;BME280;16044;52.726;-2.108;2023-01-29T12:37:42;101414.16;;;7.34;87.43
28935;BME280;16044;52.726;-2.108;2023-01-29T12:40:15;101407.50;;;7.38;87.17
28935;BME280;16044;52.726;-2.108;2023-01-29T12:42:46;101396.03;;;7.46;87.30
28935;BME280;16044;52.726;-2.108;2023-01-29T12:45:17;101401.59;;;7.54;87.77
28935;BME280;16044;52.726;-2.108;2023-01-29T12:47:52;101396.25;;;7.64;86.74
28935;BME280;16044;52.726;-2.108;2023-01-29T12:50:32;101396.72;;;7.69;86.51
28935;BME280;16044;52.726;-2.108;2023-01-29T12:53:05;101388.66;;;7.78;86.01
28935;BME280;16044;52.726;-2.108;2023-01-29T12:55:50;101382.84;;;7.83;84.59
28935;BME280;16044;52.726;-2.108;2023-01-29T12:58:24;101378.88;;;7.87;84.88
28935;BME280;16044;52.726;-2.108;2023-01-29T13:01:00;101368.09;;;7.87;84.80
28935;BME280;16044;52.726;-2.108;2023-01-29T13:06:06;101358.88;;;7.99;85.00
28935;BME280;16044;52.726;-2.108;2023-01-29T13:08:39;101347.09;;;8.00;85.28
28935;BME280;16044;52.726;-2.108;2023-01-29T13:11:16;101348.25;;;8.08;84.93
28935;BME280;16044;52.726;-2.108;2023-01-29T13:14:00;101350.94;;;8.08;84.66
28935;BME280;16044;52.726;-2.108;2023-01-29T13:16:36;101334.19;;;8.14;83.88
28935;BME280;16044;52.726;-2.108;2023-01-29T13:19:28;101331.34;;;8.15;82.97
28935;BME280;16044;52.726;-2.108;2023-01-29T13:22:01;101325.09;;;8.15;80.88
28935;BME280;16044;52.726;-2.108;2023-01-29T13:24:37;101332.06;;;8.27;80.17
28935;BME280;16044;52.726;-2.108;2023-01-29T13:27:06;101315.00;;;8.36;79.80
28935;BME280;16044;52.726;-2.108;2023-01-29T13:29:33;101318.56;;;8.47;79.97
28935;BME280;16044;52.726;-2.108;2023-01-29T13:32:02;101310.19;;;8.50;77.12
28935;BME280;16044;52.726;-2.108;2023-01-29T13:34:40;101314.03;;;8.57;77.22
28935;BME280;16044;52.726;-2.108;2023-01-29T13:37:16;101310.47;;;8.47;75.36
28935;BME280;16044;52.726;-2.108;2023-01-29T13:39:49;101319.31;;;8.58;75.04
28935;BME280;16044;52.726;-2.108;2023-01-29T13:45:07;101300.94;;;8.52;74.83
28935;BME280;16044;52.726;-2.108;2023-01-29T13:47:37;101291.72;;;8.45;75.15
28935;BME280;16044;52.726;-2.108;2023-01-29T13:50:08;101294.81;;;8.40;75.34
28935;BME280;16044;52.726;-2.108;2023-01-29T13:52:51;101291.56;;;8.47;74.47
28935;BME280;16044;52.726;-2.108;2023-01-29T13:55:24;101291.13;;;8.32;74.80
28935;BME280;16044;52.726;-2.108;2023-01-29T13:58:01;101288.41;;;8.22;74.63
28935;BME280;16044;52.726;-2.108;2023-01-29T14:08:00;101274.06;;;8.12;74.55
28935;BME280;16044;52.726;-2.108;2023-01-29T14:10:29;101277.91;;;8.09;75.12
28935;BME280;16044;52.726;-2.108;2023-01-29T14:15:32;101257.28;;;8.08;76.28
28935;BME280;16044;52.726;-2.108;2023-01-29T14:20:52;101246.34;;;8.00;77.19
28935;BME280;16044;52.726;-2.108;2023-01-29T14:26:21;101232.84;;;8.00;78.15
28935;BME280;16044;52.726;-2.108;2023-01-29T14:31:42;101231.13;;;7.89;78.58
28935;BME280;16044;52.726;-2.108;2023-01-29T14:34:17;101236.25;;;7.83;79.25
28935;BME280;16044;52.726;-2.108;2023-01-29T14:36:50;101238.25;;;7.90;78.85
28935;BME280;16044;52.726;-2.108;2023-01-29T14:39:22;101234.84;;;7.88;79.55
28935;BME280;16044;52.726;-2.108;2023-01-29T14:41:54;101230.56;;;7.86;80.21
28935;BME280;16044;52.726;-2.108;2023-01-29T14:47:18;101225.47;;;7.83;80.65
28935;BME280;16044;52.726;-2.108;2023-01-29T14:49:59;101224.84;;;7.69;81.78
28935;BME280;16044;52.726;-2.108;2023-01-29T14:52:37;101228.28;;;7.71;81.55
28935;BME280;16044;52.726;-2.108;2023-01-29T14:55:10;101225.84;;;7.58;81.94
28935;BME280;16044;52.726;-2.108;2023-01-29T14:57:55;101216.59;;;7.51;82.65
28935;BME280;16044;52.726;-2.108;2023-01-29T15:00:28;101202.66;;;7.46;83.49
28935;BME280;16044;52.726;-2.108;2023-01-29T15:02:56;101211.22;;;7.51;83.26
28935;BME280;16044;52.726;-2.108;2023-01-29T15:05:35;101203.94;;;7.42;84.14
28935;BME280;16044;52.726;-2.108;2023-01-29T15:08:22;101196.13;;;7.39;84.30
28935;BME280;16044;52.726;-2.108;2023-01-29T15:11:14;101188.13;;;7.28;85.27
28935;BME280;16044;52.726;-2.108;2023-01-29T15:17:06;101181.06;;;7.27;84.65
28935;BME280;16044;52.726;-2.108;2023-01-29T15:19:45;101179.44;;;7.14;85.36
28935;BME280;16044;52.726;-2.108;2023-01-29T15:24:45;101180.16;;;7.16;85.50
28935;BME280;16044;52.726;-2.108;2023-01-29T15:27:18;101180.13;;;7.07;86.05
28935;BME280;16044;52.726;-2.108;2023-01-29T15:30:06;101168.97;;;7.11;85.90
28935;BME280;16044;52.726;-2.108;2023-01-29T15:32:38;101169.66;;;7.03;86.38